Terminal Aerodrome Forecast
Issued by NWS

Home | Current Version | Previous Version | Graphics & Text | Print | Product List | Glossary On
Versions: 1 2 3 4 5 6 7 8 9 10 11 12 13 14 15 16 17 18 19
208
FTUS43 KBIS 091607 AAA
TAFMOT
TAF AMD
KMOT 091607Z 0916/1012 23010KT P6SM BKN100
     FM091800 VRB06KT P6SM OVC080
     FM100000 10006KT P6SM VCSH OVC030
     FM100200 12007KT 2SM -SN OVC015
     FM100600 13008KT 2SM -SN OVC008=

USA.gov is the U.S. government's official web portal to all federal, state and local government web resources and services.